sensor_id;sensor_type;location;lat;lon;timestamp;temperature;humidity
802;DHT22;383;48.766;9.270;2022-07-11T00:02:26;15.70;84.10
802;DHT22;383;48.766;9.270;2022-07-11T00:04:52;15.70;83.90
802;DHT22;383;48.766;9.270;2022-07-11T00:07:19;15.80;83.60
802;DHT22;383;48.766;9.270;2022-07-11T00:09:46;15.80;83.90
802;DHT22;383;48.766;9.270;2022-07-11T00:12:14;15.80;84.00
802;DHT22;383;48.766;9.270;2022-07-11T00:14:41;15.80;84.10
802;DHT22;383;48.766;9.270;2022-07-11T00:17:08;15.80;83.90
802;DHT22;383;48.766;9.270;2022-07-11T00:19:35;15.80;84.00
802;DHT22;383;48.766;9.270;2022-07-11T00:22:03;15.80;83.70
802;DHT22;383;48.766;9.270;2022-07-11T00:24:30;15.80;84.00
802;DHT22;383;48.766;9.270;2022-07-11T00:26:57;15.90;83.90
802;DHT22;383;48.766;9.270;2022-07-11T00:29:25;15.80;84.10
802;DHT22;383;48.766;9.270;2022-07-11T00:31:52;15.80;84.10
802;DHT22;383;48.766;9.270;2022-07-11T00:34:18;15.90;83.90
802;DHT22;383;48.766;9.270;2022-07-11T00:36:46;15.90;83.50
802;DHT22;383;48.766;9.270;2022-07-11T00:39:13;15.90;83.60
802;DHT22;383;48.766;9.270;2022-07-11T00:41:40;15.80;84.10
802;DHT22;383;48.766;9.270;2022-07-11T00:44:06;15.80;84.10
802;DHT22;383;48.766;9.270;2022-07-11T00:46:35;15.80;84.40
802;DHT22;383;48.766;9.270;2022-07-11T00:49:02;15.70;84.70
802;DHT22;383;48.766;9.270;2022-07-11T00:51:28;15.70;84.90
802;DHT22;383;48.766;9.270;2022-07-11T00:53:58;15.70;84.90
802;DHT22;383;48.766;9.270;2022-07-11T00:56:27;15.70;84.70
802;DHT22;383;48.766;9.270;2022-07-11T00:58:55;15.60;84.80
802;DHT22;383;48.766;9.270;2022-07-11T01:01:22;15.50;85.10
802;DHT22;383;48.766;9.270;2022-07-11T01:03:50;15.40;85.50
802;DHT22;383;48.766;9.270;2022-07-11T01:06:18;15.40;85.60
802;DHT22;383;48.766;9.270;2022-07-11T01:08:46;15.40;86.00
802;DHT22;383;48.766;9.270;2022-07-11T01:11:12;15.30;86.10
802;DHT22;383;48.766;9.270;2022-07-11T01:13:41;15.30;86.40
802;DHT22;383;48.766;9.270;2022-07-11T01:16:13;15.30;86.50
802;DHT22;383;48.766;9.270;2022-07-11T01:18:43;15.30;86.50
802;DHT22;383;48.766;9.270;2022-07-11T01:21:18;15.20;86.70
802;DHT22;383;48.766;9.270;2022-07-11T01:23:47;15.20;86.80
802;DHT22;383;48.766;9.270;2022-07-11T01:26:15;15.30;86.30
802;DHT22;383;48.766;9.270;2022-07-11T01:28:42;15.30;86.10
802;DHT22;383;48.766;9.270;2022-07-11T01:31:10;15.30;86.00
802;DHT22;383;48.766;9.270;2022-07-11T01:33:37;15.20;86.40
802;DHT22;383;48.766;9.270;2022-07-11T01:36:04;15.20;86.80
802;DHT22;383;48.766;9.270;2022-07-11T01:38:31;15.20;87.20
802;DHT22;383;48.766;9.270;2022-07-11T01:40:59;15.20;87.20
802;DHT22;383;48.766;9.270;2022-07-11T01:43:26;15.20;86.80
802;DHT22;383;48.766;9.270;2022-07-11T01:45:53;15.10;86.90
802;DHT22;383;48.766;9.270;2022-07-11T01:48:20;15.10;86.90
802;DHT22;383;48.766;9.270;2022-07-11T01:50:47;15.20;86.90
802;DHT22;383;48.766;9.270;2022-07-11T01:53:15;15.10;86.80
802;DHT22;383;48.766;9.270;2022-07-11T01:55:42;15.20;86.80
802;DHT22;383;48.766;9.270;2022-07-11T01:58:10;15.20;86.30
802;DHT22;383;48.766;9.270;2022-07-11T02:00:37;15.20;86.80
802;DHT22;383;48.766;9.270;2022-07-11T02:03:04;15.20;86.90
802;DHT22;383;48.766;9.270;2022-07-11T02:05:31;15.20;86.90
802;DHT22;383;48.766;9.270;2022-07-11T02:07:57;15.20;87.20
802;DHT22;383;48.766;9.270;2022-07-11T02:10:41;15.20;87.40
802;DHT22;383;48.766;9.270;2022-07-11T02:13:09;15.30;87.10
802;DHT22;383;48.766;9.270;2022-07-11T02:15:38;15.30;87.10
802;DHT22;383;48.766;9.270;2022-07-11T02:18:05;15.30;86.70
802;DHT22;383;48.766;9.270;2022-07-11T02:20:32;15.30;86.70
802;DHT22;383;48.766;9.270;2022-07-11T02:22:59;15.30;86.50
802;DHT22;383;48.766;9.270;2022-07-11T02:25:26;15.40;86.50
802;DHT22;383;48.766;9.270;2022-07-11T02:27:52;15.40;86.40
802;DHT22;383;48.766;9.270;2022-07-11T02:30:19;15.40;86.50
802;DHT22;383;48.766;9.270;2022-07-11T02:32:48;15.40;86.40
802;DHT22;383;48.766;9.270;2022-07-11T02:35:15;15.50;86.10
802;DHT22;383;48.766;9.270;2022-07-11T02:37:41;15.50;86.40
802;DHT22;383;48.766;9.270;2022-07-11T02:40:09;15.50;86.10
802;DHT22;383;48.766;9.270;2022-07-11T02:42:36;15.60;86.10
802;DHT22;383;48.766;9.270;2022-07-11T02:45:03;15.60;85.70
802;DHT22;383;48.766;9.270;2022-07-11T02:47:34;15.70;85.30
802;DHT22;383;48.766;9.270;2022-07-11T02:50:02;15.70;85.20
802;DHT22;383;48.766;9.270;2022-07-11T02:52:29;15.70;85.30
802;DHT22;383;48.766;9.270;2022-07-11T02:54:55;15.80;85.50
802;DHT22;383;48.766;9.270;2022-07-11T02:57:22;15.80;85.20
802;DHT22;383;48.766;9.270;2022-07-11T02:59:49;15.90;84.90
802;DHT22;383;48.766;9.270;2022-07-11T03:02:15;15.90;85.20
802;DHT22;383;48.766;9.270;2022-07-11T03:04:42;15.90;85.50
802;DHT22;383;48.766;9.270;2022-07-11T03:07:10;15.90;85.60
802;DHT22;383;48.766;9.270;2022-07-11T03:09:37;16.00;85.50
802;DHT22;383;48.766;9.270;2022-07-11T03:12:04;16.00;85.30
802;DHT22;383;48.766;9.270;2022-07-11T03:14:31;16.10;85.20
802;DHT22;383;48.766;9.270;2022-07-11T03:16:58;16.10;84.90
802;DHT22;383;48.766;9.270;2022-07-11T03:19:25;16.20;84.50
802;DHT22;383;48.766;9.270;2022-07-11T03:21:51;16.20;84.10
802;DHT22;383;48.766;9.270;2022-07-11T03:24:20;16.20;83.90
802;DHT22;383;48.766;9.270;2022-07-11T03:26:46;16.20;84.10
802;DHT22;383;48.766;9.270;2022-07-11T03:29:13;16.20;83.90
802;DHT22;383;48.766;9.270;2022-07-11T03:31:40;16.30;83.60
802;DHT22;383;48.766;9.270;2022-07-11T03:34:06;16.30;83.60
802;DHT22;383;48.766;9.270;2022-07-11T03:36:33;16.30;83.60
802;DHT22;383;48.766;9.270;2022-07-11T03:39:00;16.30;84.00
802;DHT22;383;48.766;9.270;2022-07-11T03:41:28;16.30;84.50
802;DHT22;383;48.766;9.270;2022-07-11T03:43:55;16.30;84.40
802;DHT22;383;48.766;9.270;2022-07-11T03:46:22;16.40;83.70
802;DHT22;383;48.766;9.270;2022-07-11T03:48:50;16.40;83.40
802;DHT22;383;48.766;9.270;2022-07-11T03:51:16;16.40;83.60
802;DHT22;383;48.766;9.270;2022-07-11T03:53:43;16.40;83.60
802;DHT22;383;48.766;9.270;2022-07-11T03:56:10;16.40;84.00
802;DHT22;383;48.766;9.270;2022-07-11T03:58:38;16.40;84.10
802;DHT22;383;48.766;9.270;2022-07-11T04:01:05;16.50;83.50
802;DHT22;383;48.766;9.270;2022-07-11T04:03:32;16.50;82.70
802;DHT22;383;48.766;9.270;2022-07-11T04:05:58;16.50;83.50
802;DHT22;383;48.766;9.270;2022-07-11T04:08:25;16.60;83.20
802;DHT22;383;48.766;9.270;2022-07-11T04:10:52;16.60;82.70
802;DHT22;383;48.766;9.270;2022-07-11T04:13:18;16.60;82.60
802;DHT22;383;48.766;9.270;2022-07-11T04:15:47;16.70;82.60
802;DHT22;383;48.766;9.270;2022-07-11T04:18:14;16.70;82.70
802;DHT22;383;48.766;9.270;2022-07-11T04:20:41;16.70;83.10
802;DHT22;383;48.766;9.270;2022-07-11T04:23:07;16.70;82.60
802;DHT22;383;48.766;9.270;2022-07-11T04:25:34;16.70;82.60
802;DHT22;383;48.766;9.270;2022-07-11T04:28:01;16.80;82.00
802;DHT22;383;48.766;9.270;2022-07-11T04:30:28;16.90;82.30
802;DHT22;383;48.766;9.270;2022-07-11T04:32:56;16.90;82.30
802;DHT22;383;48.766;9.270;2022-07-11T04:35:23;17.00;82.80
802;DHT22;383;48.766;9.270;2022-07-11T04:37:50;17.10;82.20
802;DHT22;383;48.766;9.270;2022-07-11T04:40:17;17.10;82.20
802;DHT22;383;48.766;9.270;2022-07-11T04:42:43;17.10;82.60
802;DHT22;383;48.766;9.270;2022-07-11T04:45:10;17.20;82.40
802;DHT22;383;48.766;9.270;2022-07-11T04:47:37;17.20;82.60
802;DHT22;383;48.766;9.270;2022-07-11T04:50:06;17.30;82.60
802;DHT22;383;48.766;9.270;2022-07-11T04:52:33;17.30;82.70
802;DHT22;383;48.766;9.270;2022-07-11T04:54:59;17.40;82.20
802;DHT22;383;48.766;9.270;2022-07-11T04:57:26;17.50;80.80
802;DHT22;383;48.766;9.270;2022-07-11T04:59:53;17.70;80.20
802;DHT22;383;48.766;9.270;2022-07-11T05:02:20;17.80;79.80
802;DHT22;383;48.766;9.270;2022-07-11T05:04:46;17.80;78.70
802;DHT22;383;48.766;9.270;2022-07-11T05:07:15;18.00;78.60
802;DHT22;383;48.766;9.270;2022-07-11T05:09:41;18.10;78.50
802;DHT22;383;48.766;9.270;2022-07-11T05:12:08;18.20;77.50
802;DHT22;383;48.766;9.270;2022-07-11T05:14:35;18.30;77.80
802;DHT22;383;48.766;9.270;2022-07-11T05:17:02;18.40;77.50
802;DHT22;383;48.766;9.270;2022-07-11T05:19:29;18.50;77.10
802;DHT22;383;48.766;9.270;2022-07-11T05:21:55;18.70;75.70
802;DHT22;383;48.766;9.270;2022-07-11T05:24:23;18.80;74.90
802;DHT22;383;48.766;9.270;2022-07-11T05:26:50;18.80;75.20
802;DHT22;383;48.766;9.270;2022-07-11T05:29:17;18.80;74.90
802;DHT22;383;48.766;9.270;2022-07-11T05:31:44;18.70;75.00
802;DHT22;383;48.766;9.270;2022-07-11T05:34:16;18.80;76.10
802;DHT22;383;48.766;9.270;2022-07-11T05:36:43;18.80;76.00
802;DHT22;383;48.766;9.270;2022-07-11T05:39:10;18.80;76.50
802;DHT22;383;48.766;9.270;2022-07-11T05:41:38;18.80;75.70
802;DHT22;383;48.766;9.270;2022-07-11T05:44:04;18.80;75.70
802;DHT22;383;48.766;9.270;2022-07-11T05:46:31;18.80;76.20
802;DHT22;383;48.766;9.270;2022-07-11T05:48:58;19.00;75.70
802;DHT22;383;48.766;9.270;2022-07-11T05:51:24;19.00;75.00
802;DHT22;383;48.766;9.270;2022-07-11T05:53:51;19.10;74.40
802;DHT22;383;48.766;9.270;2022-07-11T05:56:18;19.30;74.00
802;DHT22;383;48.766;9.270;2022-07-11T05:58:46;19.40;73.40
802;DHT22;383;48.766;9.270;2022-07-11T06:01:12;19.50;74.10
802;DHT22;383;48.766;9.270;2022-07-11T06:03:39;19.60;73.80
802;DHT22;383;48.766;9.270;2022-07-11T06:06:06;19.70;72.80
802;DHT22;383;48.766;9.270;2022-07-11T06:08:33;19.80;73.00
802;DHT22;383;48.766;9.270;2022-07-11T06:11:09;19.80;72.60
802;DHT22;383;48.766;9.270;2022-07-11T06:13:37;19.90;73.30
802;DHT22;383;48.766;9.270;2022-07-11T06:16:06;19.80;72.00
802;DHT22;383;48.766;9.270;2022-07-11T06:18:33;19.90;72.90
802;DHT22;383;48.766;9.270;2022-07-11T06:20:59;20.00;72.50
802;DHT22;383;48.766;9.270;2022-07-11T06:23:26;20.10;72.40
802;DHT22;383;48.766;9.270;2022-07-11T06:25:53;20.30;72.30
802;DHT22;383;48.766;9.270;2022-07-11T06:28:20;20.40;71.10
802;DHT22;383;48.766;9.270;2022-07-11T06:30:48;20.50;70.80
802;DHT22;383;48.766;9.270;2022-07-11T06:33:17;20.50;71.20
802;DHT22;383;48.766;9.270;2022-07-11T06:35:44;20.70;70.70
802;DHT22;383;48.766;9.270;2022-07-11T06:38:11;20.80;69.70
802;DHT22;383;48.766;9.270;2022-07-11T06:40:38;20.90;69.60
802;DHT22;383;48.766;9.270;2022-07-11T06:43:05;21.00;68.70
802;DHT22;383;48.766;9.270;2022-07-11T06:45:32;21.00;68.70
802;DHT22;383;48.766;9.270;2022-07-11T06:47:59;21.10;68.60
802;DHT22;383;48.766;9.270;2022-07-11T06:50:27;21.20;68.30
802;DHT22;383;48.766;9.270;2022-07-11T06:52:54;21.30;68.40
802;DHT22;383;48.766;9.270;2022-07-11T06:55:21;21.30;68.40
802;DHT22;383;48.766;9.270;2022-07-11T06:57:47;21.40;68.30
802;DHT22;383;48.766;9.270;2022-07-11T07:00:15;21.50;68.30
802;DHT22;383;48.766;9.270;2022-07-11T07:02:43;21.60;68.20
802;DHT22;383;48.766;9.270;2022-07-11T07:05:10;21.70;67.20
802;DHT22;383;48.766;9.270;2022-07-11T07:07:38;21.80;67.00
802;DHT22;383;48.766;9.270;2022-07-11T07:10:06;21.90;67.00
802;DHT22;383;48.766;9.270;2022-07-11T07:12:37;21.90;66.00
802;DHT22;383;48.766;9.270;2022-07-11T07:15:05;21.90;66.60
802;DHT22;383;48.766;9.270;2022-07-11T07:17:32;22.10;66.70
802;DHT22;383;48.766;9.270;2022-07-11T07:19:58;22.30;65.50
802;DHT22;383;48.766;9.270;2022-07-11T07:22:25;22.40;65.10
802;DHT22;383;48.766;9.270;2022-07-11T07:24:53;22.60;65.10
802;DHT22;383;48.766;9.270;2022-07-11T07:27:20;22.70;63.90
802;DHT22;383;48.766;9.270;2022-07-11T07:29:46;22.80;64.30
802;DHT22;383;48.766;9.270;2022-07-11T07:32:14;22.90;64.20
802;DHT22;383;48.766;9.270;2022-07-11T07:34:40;22.90;63.70
802;DHT22;383;48.766;9.270;2022-07-11T07:37:07;22.90;63.90
802;DHT22;383;48.766;9.270;2022-07-11T07:39:34;23.10;63.80
802;DHT22;383;48.766;9.270;2022-07-11T07:42:02;23.20;63.50
802;DHT22;383;48.766;9.270;2022-07-11T07:44:29;23.10;62.30
802;DHT22;383;48.766;9.270;2022-07-11T07:46:56;23.10;62.60
802;DHT22;383;48.766;9.270;2022-07-11T07:49:23;23.00;62.60
802;DHT22;383;48.766;9.270;2022-07-11T07:51:50;22.80;64.30
802;DHT22;383;48.766;9.270;2022-07-11T07:54:17;22.80;64.10
802;DHT22;383;48.766;9.270;2022-07-11T07:56:44;22.80;65.10
802;DHT22;383;48.766;9.270;2022-07-11T07:59:12;22.80;64.70
802;DHT22;383;48.766;9.270;2022-07-11T08:01:38;22.80;65.00
802;DHT22;383;48.766;9.270;2022-07-11T08:04:08;22.80;65.20
802;DHT22;383;48.766;9.270;2022-07-11T08:06:35;22.80;64.20
802;DHT22;383;48.766;9.270;2022-07-11T08:09:03;22.90;63.50
802;DHT22;383;48.766;9.270;2022-07-11T08:11:29;23.00;63.10
802;DHT22;383;48.766;9.270;2022-07-11T08:13:56;23.10;63.90
802;DHT22;383;48.766;9.270;2022-07-11T08:16:25;23.30;61.70
802;DHT22;383;48.766;9.270;2022-07-11T08:18:54;23.40;61.80
802;DHT22;383;48.766;9.270;2022-07-11T08:21:21;23.40;61.30
802;DHT22;383;48.766;9.270;2022-07-11T08:23:48;23.50;60.10
802;DHT22;383;48.766;9.270;2022-07-11T08:26:14;23.60;59.70
802;DHT22;383;48.766;9.270;2022-07-11T08:28:41;23.60;61.10
802;DHT22;383;48.766;9.270;2022-07-11T08:31:08;23.50;60.60
802;DHT22;383;48.766;9.270;2022-07-11T08:33:36;23.50;60.40
802;DHT22;383;48.766;9.270;2022-07-11T08:36:03;23.60;61.70
802;DHT22;383;48.766;9.270;2022-07-11T08:38:30;23.70;60.60
802;DHT22;383;48.766;9.270;2022-07-11T08:40:56;23.80;60.40
802;DHT22;383;48.766;9.270;2022-07-11T08:43:27;23.90;60.90
802;DHT22;383;48.766;9.270;2022-07-11T08:45:55;23.90;59.80
802;DHT22;383;48.766;9.270;2022-07-11T08:48:22;24.00;60.10
802;DHT22;383;48.766;9.270;2022-07-11T08:50:50;24.10;59.30
802;DHT22;383;48.766;9.270;2022-07-11T08:53:18;24.20;57.20
802;DHT22;383;48.766;9.270;2022-07-11T08:55:45;24.10;58.30
802;DHT22;383;48.766;9.270;2022-07-11T08:58:13;24.10;58.80
802;DHT22;383;48.766;9.270;2022-07-11T09:00:41;24.10;58.60
802;DHT22;383;48.766;9.270;2022-07-11T09:03:13;24.10;59.00
802;DHT22;383;48.766;9.270;2022-07-11T09:05:40;24.10;60.00
802;DHT22;383;48.766;9.270;2022-07-11T09:08:08;24.20;58.30
802;DHT22;383;48.766;9.270;2022-07-11T09:10:38;24.20;59.30
802;DHT22;383;48.766;9.270;2022-07-11T09:13:07;24.30;57.50
802;DHT22;383;48.766;9.270;2022-07-11T09:15:36;24.20;58.60
802;DHT22;383;48.766;9.270;2022-07-11T09:18:05;24.20;58.10
802;DHT22;383;48.766;9.270;2022-07-11T09:20:53;24.20;59.00
802;DHT22;383;48.766;9.270;2022-07-11T09:23:35;24.30;57.60
802;DHT22;383;48.766;9.270;2022-07-11T09:26:20;24.20;59.80
802;DHT22;383;48.766;9.270;2022-07-11T09:28:58;24.20;57.10
802;DHT22;383;48.766;9.270;2022-07-11T09:31:27;24.30;55.90
802;DHT22;383;48.766;9.270;2022-07-11T09:33:58;24.50;56.60
802;DHT22;383;48.766;9.270;2022-07-11T09:36:36;24.80;55.60
802;DHT22;383;48.766;9.270;2022-07-11T09:39:06;25.00;53.50
802;DHT22;383;48.766;9.270;2022-07-11T09:41:33;25.00;54.10
802;DHT22;383;48.766;9.270;2022-07-11T09:44:08;24.90;54.40
802;DHT22;383;48.766;9.270;2022-07-11T09:46:35;24.80;54.30
802;DHT22;383;48.766;9.270;2022-07-11T09:49:02;24.80;55.00
802;DHT22;383;48.766;9.270;2022-07-11T09:51:30;24.80;55.00
802;DHT22;383;48.766;9.270;2022-07-11T09:53:58;25.00;53.00
802;DHT22;383;48.766;9.270;2022-07-11T09:56:31;25.10;52.60
802;DHT22;383;48.766;9.270;2022-07-11T09:58:59;25.20;52.60
802;DHT22;383;48.766;9.270;2022-07-11T10:01:27;25.20;52.50
802;DHT22;383;48.766;9.270;2022-07-11T10:03:55;25.30;52.60
802;DHT22;383;48.766;9.270;2022-07-11T10:06:22;25.40;53.90
802;DHT22;383;48.766;9.270;2022-07-11T10:09:35;25.40;54.30
802;DHT22;383;48.766;9.270;2022-07-11T10:12:36;25.60;52.40
802;DHT22;383;48.766;9.270;2022-07-11T10:15:04;25.80;52.10
802;DHT22;383;48.766;9.270;2022-07-11T10:17:40;25.80;53.60
802;DHT22;383;48.766;9.270;2022-07-11T10:20:17;25.90;52.60
802;DHT22;383;48.766;9.270;2022-07-11T10:23:13;26.00;52.40
802;DHT22;383;48.766;9.270;2022-07-11T10:25:57;26.00;52.00
802;DHT22;383;48.766;9.270;2022-07-11T10:28:33;26.30;49.90
802;DHT22;383;48.766;9.270;2022-07-11T10:31:02;26.00;49.80
802;DHT22;383;48.766;9.270;2022-07-11T10:33:30;25.90;51.40
802;DHT22;383;48.766;9.270;2022-07-11T10:35:57;26.10;52.60
802;DHT22;383;48.766;9.270;2022-07-11T10:38:25;26.30;52.30
802;DHT22;383;48.766;9.270;2022-07-11T10:40:53;26.50;52.00
802;DHT22;383;48.766;9.270;2022-07-11T10:43:35;26.60;51.20
802;DHT22;383;48.766;9.270;2022-07-11T10:46:05;26.80;49.40
802;DHT22;383;48.766;9.270;2022-07-11T10:48:34;26.80;51.80
802;DHT22;383;48.766;9.270;2022-07-11T10:51:24;27.00;48.70
802;DHT22;383;48.766;9.270;2022-07-11T10:53:51;27.10;49.30
802;DHT22;383;48.766;9.270;2022-07-11T10:56:46;27.00;48.40
802;DHT22;383;48.766;9.270;2022-07-11T10:59:18;27.00;49.70
802;DHT22;383;48.766;9.270;2022-07-11T11:02:11;27.30;50.20
802;DHT22;383;48.766;9.270;2022-07-11T11:04:42;27.50;49.30
802;DHT22;383;48.766;9.270;2022-07-11T11:07:27;27.70;49.30
802;DHT22;383;48.766;9.270;2022-07-11T11:09:55;27.90;47.30
802;DHT22;383;48.766;9.270;2022-07-11T11:15:33;27.60;48.70
802;DHT22;383;48.766;9.270;2022-07-11T11:18:34;27.80;49.50
802;DHT22;383;48.766;9.270;2022-07-11T11:21:20;27.90;46.70
802;DHT22;383;48.766;9.270;2022-07-11T11:24:06;27.90;46.20
802;DHT22;383;48.766;9.270;2022-07-11T11:26:58;27.90;47.10
802;DHT22;383;48.766;9.270;2022-07-11T11:29:27;27.90;47.60
802;DHT22;383;48.766;9.270;2022-07-11T11:31:58;27.80;46.80
802;DHT22;383;48.766;9.270;2022-07-11T11:34:26;27.80;47.10
802;DHT22;383;48.766;9.270;2022-07-11T11:36:55;27.70;48.20
802;DHT22;383;48.766;9.270;2022-07-11T11:39:25;27.70;47.60
802;DHT22;383;48.766;9.270;2022-07-11T11:41:52;27.50;47.20
802;DHT22;383;48.766;9.270;2022-07-11T11:44:19;27.30;48.70
802;DHT22;383;48.766;9.270;2022-07-11T11:46:45;27.10;48.90
802;DHT22;383;48.766;9.270;2022-07-11T11:49:13;27.20;48.30
802;DHT22;383;48.766;9.270;2022-07-11T11:51:40;27.30;49.30
802;DHT22;383;48.766;9.270;2022-07-11T11:54:09;27.40;49.30
802;DHT22;383;48.766;9.270;2022-07-11T11:56:36;27.50;49.40
802;DHT22;383;48.766;9.270;2022-07-11T11:59:08;27.40;48.20
802;DHT22;383;48.766;9.270;2022-07-11T12:01:39;27.40;48.10
802;DHT22;383;48.766;9.270;2022-07-11T12:04:07;27.40;48.80
802;DHT22;383;48.766;9.270;2022-07-11T12:06:37;27.50;48.10
802;DHT22;383;48.766;9.270;2022-07-11T12:09:05;27.50;47.60
802;DHT22;383;48.766;9.270;2022-07-11T12:11:33;27.50;48.40
802;DHT22;383;48.766;9.270;2022-07-11T12:14:03;27.60;48.80
802;DHT22;383;48.766;9.270;2022-07-11T12:16:32;27.50;48.40
802;DHT22;383;48.766;9.270;2022-07-11T12:19:08;27.30;48.40
802;DHT22;383;48.766;9.270;2022-07-11T12:21:40;27.40;50.50
802;DHT22;383;48.766;9.270;2022-07-11T12:24:09;27.50;48.80
802;DHT22;383;48.766;9.270;2022-07-11T12:26:38;27.60;48.60
802;DHT22;383;48.766;9.270;2022-07-11T12:29:10;27.60;50.20
802;DHT22;383;48.766;9.270;2022-07-11T12:31:46;27.50;48.90
802;DHT22;383;48.766;9.270;2022-07-11T12:34:14;27.50;47.90
802;DHT22;383;48.766;9.270;2022-07-11T12:36:42;27.50;48.70
802;DHT22;383;48.766;9.270;2022-07-11T12:39:20;27.50;48.90
802;DHT22;383;48.766;9.270;2022-07-11T12:41:47;27.50;49.80
802;DHT22;383;48.766;9.270;2022-07-11T12:44:21;27.50;50.30
802;DHT22;383;48.766;9.270;2022-07-11T12:47:05;27.50;49.40
802;DHT22;383;48.766;9.270;2022-07-11T12:49:32;27.50;51.00
802;DHT22;383;48.766;9.270;2022-07-11T12:52:00;27.50;50.30
802;DHT22;383;48.766;9.270;2022-07-11T12:54:29;27.50;51.00
802;DHT22;383;48.766;9.270;2022-07-11T12:56:57;27.70;50.00
802;DHT22;383;48.766;9.270;2022-07-11T12:59:25;27.80;48.20
802;DHT22;383;48.766;9.270;2022-07-11T13:01:56;27.80;49.40
802;DHT22;383;48.766;9.270;2022-07-11T13:04:35;27.90;49.40
802;DHT22;383;48.766;9.270;2022-07-11T13:07:22;27.80;48.70
802;DHT22;383;48.766;9.270;2022-07-11T13:10:08;27.60;48.60
802;DHT22;383;48.766;9.270;2022-07-11T13:12:35;27.60;48.80
802;DHT22;383;48.766;9.270;2022-07-11T13:15:04;27.50;50.20
802;DHT22;383;48.766;9.270;2022-07-11T13:17:39;27.40;50.00
802;DHT22;383;48.766;9.270;2022-07-11T13:20:08;27.40;49.40
802;DHT22;383;48.766;9.270;2022-07-11T13:22:36;27.50;49.00
802;DHT22;383;48.766;9.270;2022-07-11T13:25:04;27.60;48.70
802;DHT22;383;48.766;9.270;2022-07-11T13:27:30;27.60;49.80
802;DHT22;383;48.766;9.270;2022-07-11T13:29:57;27.70;50.30
802;DHT22;383;48.766;9.270;2022-07-11T13:32:24;27.90;49.70
802;DHT22;383;48.766;9.270;2022-07-11T13:34:51;27.90;49.20
802;DHT22;383;48.766;9.270;2022-07-11T13:37:17;27.60;50.50
802;DHT22;383;48.766;9.270;2022-07-11T13:39:45;27.80;50.00
802;DHT22;383;48.766;9.270;2022-07-11T13:42:12;28.00;48.60
802;DHT22;383;48.766;9.270;2022-07-11T13:44:39;28.20;49.30
802;DHT22;383;48.766;9.270;2022-07-11T13:47:06;28.30;48.30
802;DHT22;383;48.766;9.270;2022-07-11T13:49:32;28.30;48.90
802;DHT22;383;48.766;9.270;2022-07-11T13:51:59;28.20;49.70
802;DHT22;383;48.766;9.270;2022-07-11T13:54:25;28.20;48.30
802;DHT22;383;48.766;9.270;2022-07-11T13:56:53;28.10;48.10
802;DHT22;383;48.766;9.270;2022-07-11T13:59:20;28.20;49.50
802;DHT22;383;48.766;9.270;2022-07-11T14:01:47;28.30;48.70
802;DHT22;383;48.766;9.270;2022-07-11T14:04:14;28.20;48.40
802;DHT22;383;48.766;9.270;2022-07-11T14:06:40;28.20;49.70
802;DHT22;383;48.766;9.270;2022-07-11T14:09:07;28.30;49.40
802;DHT22;383;48.766;9.270;2022-07-11T14:11:34;28.50;49.40
802;DHT22;383;48.766;9.270;2022-07-11T14:14:02;28.50;48.10
802;DHT22;383;48.766;9.270;2022-07-11T14:16:30;28.30;48.70
802;DHT22;383;48.766;9.270;2022-07-11T14:18:56;28.30;49.20
802;DHT22;383;48.766;9.270;2022-07-11T14:21:26;28.40;49.20
802;DHT22;383;48.766;9.270;2022-07-11T14:23:53;28.40;48.40
802;DHT22;383;48.766;9.270;2022-07-11T14:26:19;28.40;49.80
802;DHT22;383;48.766;9.270;2022-07-11T14:28:46;28.50;48.30
802;DHT22;383;48.766;9.270;2022-07-11T14:31:15;28.40;48.30
802;DHT22;383;48.766;9.270;2022-07-11T14:33:42;28.30;50.00
802;DHT22;383;48.766;9.270;2022-07-11T14:36:08;28.30;48.70
802;DHT22;383;48.766;9.270;2022-07-11T14:38:35;28.30;49.00
802;DHT22;383;48.766;9.270;2022-07-11T14:41:02;28.30;49.20
802;DHT22;383;48.766;9.270;2022-07-11T14:43:29;28.00;49.00
802;DHT22;383;48.766;9.270;2022-07-11T14:45:56;27.80;49.70
802;DHT22;383;48.766;9.270;2022-07-11T14:48:24;27.80;50.30
802;DHT22;383;48.766;9.270;2022-07-11T14:50:51;28.00;50.00
802;DHT22;383;48.766;9.270;2022-07-11T14:53:18;28.10;49.90
802;DHT22;383;48.766;9.270;2022-07-11T14:55:44;28.30;48.90
802;DHT22;383;48.766;9.270;2022-07-11T14:58:11;28.30;49.00
802;DHT22;383;48.766;9.270;2022-07-11T15:00:38;28.30;47.90
802;DHT22;383;48.766;9.270;2022-07-11T15:03:05;28.20;48.80
802;DHT22;383;48.766;9.270;2022-07-11T15:05:51;28.10;48.70
802;DHT22;383;48.766;9.270;2022-07-11T15:08:18;28.10;48.60
802;DHT22;383;48.766;9.270;2022-07-11T15:11:02;28.10;48.60
802;DHT22;383;48.766;9.270;2022-07-11T15:13:46;28.30;48.80
802;DHT22;383;48.766;9.270;2022-07-11T15:16:13;28.30;49.20
802;DHT22;383;48.766;9.270;2022-07-11T15:18:40;28.20;49.70
802;DHT22;383;48.766;9.270;2022-07-11T15:21:08;28.20;47.90
802;DHT22;383;48.766;9.270;2022-07-11T15:23:35;28.40;48.70
802;DHT22;383;48.766;9.270;2022-07-11T15:26:02;28.50;49.40
802;DHT22;383;48.766;9.270;2022-07-11T15:28:29;28.70;47.60
802;DHT22;383;48.766;9.270;2022-07-11T15:30:56;28.90;48.90
802;DHT22;383;48.766;9.270;2022-07-11T15:33:23;29.10;48.30
802;DHT22;383;48.766;9.270;2022-07-11T15:35:50;29.20;47.60
802;DHT22;383;48.766;9.270;2022-07-11T15:38:19;29.50;45.90
802;DHT22;383;48.766;9.270;2022-07-11T15:40:46;29.40;46.30
802;DHT22;383;48.766;9.270;2022-07-11T15:43:13;29.20;46.70
802;DHT22;383;48.766;9.270;2022-07-11T15:45:40;28.90;47.40
802;DHT22;383;48.766;9.270;2022-07-11T15:48:06;28.60;48.30
802;DHT22;383;48.766;9.270;2022-07-11T15:50:33;28.70;47.90
802;DHT22;383;48.766;9.270;2022-07-11T15:53:00;29.00;47.70
802;DHT22;383;48.766;9.270;2022-07-11T15:55:28;29.20;48.10
802;DHT22;383;48.766;9.270;2022-07-11T15:57:56;29.50;47.90
802;DHT22;383;48.766;9.270;2022-07-11T16:00:22;29.70;46.30
802;DHT22;383;48.766;9.270;2022-07-11T16:02:50;29.60;45.70
802;DHT22;383;48.766;9.270;2022-07-11T16:05:17;29.30;46.90
802;DHT22;383;48.766;9.270;2022-07-11T16:07:44;29.20;47.20
802;DHT22;383;48.766;9.270;2022-07-11T16:10:11;29.10;46.90
802;DHT22;383;48.766;9.270;2022-07-11T16:12:39;29.00;47.60
802;DHT22;383;48.766;9.270;2022-07-11T16:15:06;29.00;46.90
802;DHT22;383;48.766;9.270;2022-07-11T16:17:33;28.90;47.40
802;DHT22;383;48.766;9.270;2022-07-11T16:20:03;28.50;48.60
802;DHT22;383;48.766;9.270;2022-07-11T16:22:30;28.10;48.30
802;DHT22;383;48.766;9.270;2022-07-11T16:24:57;27.90;49.20
802;DHT22;383;48.766;9.270;2022-07-11T16:27:23;27.90;49.70
802;DHT22;383;48.766;9.270;2022-07-11T16:29:51;27.90;49.80
802;DHT22;383;48.766;9.270;2022-07-11T16:32:18;27.80;50.90
802;DHT22;383;48.766;9.270;2022-07-11T16:34:46;27.60;50.80
802;DHT22;383;48.766;9.270;2022-07-11T16:37:13;27.50;51.50
802;DHT22;383;48.766;9.270;2022-07-11T16:39:39;27.40;51.30
802;DHT22;383;48.766;9.270;2022-07-11T16:42:24;27.30;51.30
802;DHT22;383;48.766;9.270;2022-07-11T16:45:09;27.20;51.30
802;DHT22;383;48.766;9.270;2022-07-11T16:47:36;27.10;51.20
802;DHT22;383;48.766;9.270;2022-07-11T16:50:04;27.00;51.60